Time;durP1;ratioP1;P1;durP2;ratioP2;P2;SDS_P1;SDS_P2;PMS_P1;PMS_P2;Temp;Humidity;BMP_temperature;BMP_pressure;BME280_temperature;BME280_humidity;BME280_pressure;Samples;Min_cycle;Max_cycle;Signal;HPM_P1;HPM_P2
2021/09/20 00:01:57;;;;;;;3.30;2.40;;;10.90;99.90;;;;;;4949835;29;20077;-78
2021/09/20 00:04:24;;;;;;;5.90;2.33;;;10.90;99.90;;;;;;4927496;29;20052;-78
2021/09/20 00:06:51;;;;;;;7.80;2.80;;;10.90;99.90;;;;;;4941968;29;20059;-79
2021/09/20 00:09:17;;;;;;;9.20;2.78;;;10.90;99.90;;;;;;4933870;29;20145;-79
2021/09/20 00:11:44;;;;;;;7.70;2.67;;;10.90;99.90;;;;;;4948615;29;20154;-78
2021/09/20 00:14:11;;;;;;;8.32;2.55;;;10.90;99.90;;;;;;4942499;29;20164;-78
2021/09/20 00:16:38;;;;;;;5.85;2.83;;;10.90;99.90;;;;;;4949901;29;20050;-78
2021/09/20 00:19:04;;;;;;;5.10;3.00;;;10.90;99.90;;;;;;4956622;28;20046;-79
2021/09/20 00:21:31;;;;;;;9.40;3.03;;;10.90;99.90;;;;;;4945649;29;20083;-78
2021/09/20 00:23:58;;;;;;;8.55;3.28;;;10.90;99.90;;;;;;4945592;29;20142;-78
2021/09/20 00:26:25;;;;;;;6.68;2.95;;;10.90;99.90;;;;;;4949207;29;20082;-78
2021/09/20 00:28:52;;;;;;;4.22;2.67;;;10.90;99.90;;;;;;4949688;29;20101;-79
2021/09/20 00:31:19;;;;;;;8.48;2.80;;;11.00;99.90;;;;;;4933537;29;20089;-79
2021/09/20 00:33:45;;;;;;;4.82;2.45;;;11.00;99.90;;;;;;4950282;29;20129;-78
2021/09/20 00:36:12;;;;;;;6.10;3.33;;;11.00;99.90;;;;;;4950449;29;20083;-78
2021/09/20 00:38:39;;;;;;;3.50;2.30;;;11.00;99.90;;;;;;4949025;29;20094;-79
2021/09/20 00:41:06;;;;;;;5.88;2.65;;;10.90;99.90;;;;;;4948765;29;20087;-78
2021/09/20 00:43:33;;;;;;;8.93;2.50;;;11.00;99.90;;;;;;4933489;29;20147;-78
2021/09/20 00:46:06;;;;;;;10.95;3.30;;;11.00;99.90;;;;;;4930274;29;20650;-78
2021/09/20 00:48:34;;;;;;;7.15;2.70;;;11.00;99.90;;;;;;4935305;28;20106;-79
2021/09/20 00:51:01;;;;;;;5.03;2.63;;;11.00;99.90;;;;;;4932145;29;20055;-79
2021/09/20 00:53:28;;;;;;;4.18;2.90;;;11.00;99.90;;;;;;4940011;29;20138;-79
2021/09/20 00:55:56;;;;;;;4.30;2.63;;;11.00;99.90;;;;;;4949040;28;20097;-79
2021/09/20 00:58:23;;;;;;;5.90;2.80;;;11.00;99.90;;;;;;4951617;29;20058;-79
2021/09/20 01:00:50;;;;;;;5.28;2.63;;;11.00;99.90;;;;;;4953620;29;20113;-78
2021/09/20 01:03:17;;;;;;;6.30;2.70;;;11.00;99.90;;;;;;4952698;29;20419;-78
2021/09/20 01:05:44;;;;;;;3.92;2.58;;;11.00;99.90;;;;;;4952261;29;20055;-79
2021/09/20 01:08:11;;;;;;;4.88;2.60;;;11.00;99.90;;;;;;4953364;29;20079;-80
2021/09/20 01:10:38;;;;;;;5.78;2.50;;;11.00;99.90;;;;;;4953950;29;20102;-78
2021/09/20 01:13:05;;;;;;;5.45;3.25;;;11.00;99.90;;;;;;4952130;29;20063;-78
2021/09/20 01:15:33;;;;;;;5.53;2.97;;;11.00;99.90;;;;;;4953059;29;20047;-78
2021/09/20 01:18:01;;;;;;;8.32;3.00;;;11.00;99.90;;;;;;4916790;29;1061747;-79
2021/09/20 01:20:28;;;;;;;8.20;3.10;;;11.00;99.90;;;;;;4952988;29;20122;-79
2021/09/20 01:23:03;;;;;;;7.10;2.65;;;10.90;99.90;;;;;;4953823;29;20074;-79
2021/09/20 01:25:31;;;;;;;7.50;3.33;;;11.00;99.90;;;;;;4954147;29;20083;-78
2021/09/20 01:27:58;;;;;;;6.15;2.65;;;11.00;99.90;;;;;;4954646;29;20760;-78
2021/09/20 01:30:26;;;;;;;8.50;2.72;;;10.90;99.90;;;;;;4953275;29;20157;-78
2021/09/20 01:32:52;;;;;;;5.32;2.90;;;10.90;99.90;;;;;;4953785;29;20102;-79
2021/09/20 01:35:21;;;;;;;7.15;3.00;;;11.00;99.90;;;;;;4953266;29;20055;-78
2021/09/20 01:37:48;;;;;;;7.63;3.42;;;10.90;99.90;;;;;;4953868;29;20075;-78
2021/09/20 01:40:16;;;;;;;5.45;3.13;;;10.90;99.90;;;;;;4953541;29;20493;-78
2021/09/20 01:42:43;;;;;;;8.25;3.75;;;10.90;99.90;;;;;;4953288;29;20166;-79
2021/09/20 01:45:13;;;;;;;6.80;3.67;;;10.90;99.90;;;;;;4953358;29;20110;-78
2021/09/20 01:47:43;;;;;;;7.30;3.72;;;10.90;99.90;;;;;;4953833;29;20059;-78
2021/09/20 01:50:12;;;;;;;5.22;3.13;;;10.90;99.90;;;;;;4959677;28;20524;-79
2021/09/20 01:52:40;;;;;;;4.13;2.67;;;10.90;99.90;;;;;;4946950;29;20492;-78
2021/09/20 01:55:08;;;;;;;7.30;3.10;;;10.90;99.90;;;;;;4955093;29;20055;-79
2021/09/20 01:57:37;;;;;;;7.15;3.08;;;11.00;99.90;;;;;;4954620;29;20055;-78
2021/09/20 02:00:10;;;;;;;6.95;2.83;;;10.90;99.90;;;;;;4952264;29;20058;-78
2021/09/20 02:02:38;;;;;;;8.50;2.75;;;11.00;99.90;;;;;;4952489;29;20059;-77
2021/09/20 02:05:06;;;;;;;7.20;2.78;;;10.90;99.90;;;;;;4953968;29;20055;-78
2021/09/20 02:07:33;;;;;;;4.72;2.55;;;10.90;99.90;;;;;;4937691;28;20106;-78
2021/09/20 02:10:01;;;;;;;4.25;2.85;;;10.90;99.90;;;;;;4951832;29;20489;-78
2021/09/20 02:12:27;;;;;;;7.13;3.20;;;10.90;99.90;;;;;;4953074;29;20126;-78
2021/09/20 02:14:55;;;;;;;6.03;3.33;;;10.90;99.90;;;;;;4951940;29;20079;-78
2021/09/20 02:17:24;;;;;;;5.88;2.90;;;10.90;99.90;;;;;;4951689;29;20043;-78
2021/09/20 02:19:51;;;;;;;8.38;3.33;;;10.90;99.90;;;;;;4956540;28;20082;-79
2021/09/20 02:22:18;;;;;;;7.90;2.80;;;10.90;99.90;;;;;;4952651;29;20071;-78
2021/09/20 02:24:44;;;;;;;4.97;2.45;;;10.90;99.90;;;;;;4952286;29;20562;-78
2021/09/20 02:27:11;;;;;;;6.75;2.70;;;10.90;99.90;;;;;;4952390;29;20078;-78
2021/09/20 02:29:38;;;;;;;4.38;2.78;;;10.90;99.90;;;;;;4951692;29;20465;-79
2021/09/20 02:32:05;;;;;;;7.80;3.22;;;10.90;99.90;;;;;;4942289;29;20549;-78
2021/09/20 02:34:32;;;;;;;6.10;2.95;;;10.90;99.90;;;;;;4950402;29;20225;-78
2021/09/20 02:37:00;;;;;;;5.40;2.53;;;10.80;99.90;;;;;;4953372;29;20079;-78
2021/09/20 02:39:28;;;;;;;9.65;3.30;;;10.80;99.90;;;;;;4951820;29;20146;-78
2021/09/20 02:41:56;;;;;;;7.05;2.85;;;10.80;99.90;;;;;;4951876;29;20098;-78
2021/09/20 02:44:22;;;;;;;8.57;2.92;;;10.90;99.90;;;;;;4950619;29;20138;-78
2021/09/20 02:46:49;;;;;;;4.68;2.92;;;10.90;99.90;;;;;;4948365;29;20106;-78
2021/09/20 02:49:16;;;;;;;5.75;3.05;;;10.80;99.90;;;;;;4941346;29;20821;-78
2021/09/20 02:51:43;;;;;;;3.78;2.42;;;10.80;99.90;;;;;;4939833;29;20075;-78
2021/09/20 02:54:10;;;;;;;5.80;2.80;;;10.80;99.90;;;;;;4948967;29;20094;-79
2021/09/20 02:56:39;;;;;;;12.05;3.40;;;10.80;99.90;;;;;;4948628;29;20122;-78
2021/09/20 02:59:07;;;;;;;7.65;3.45;;;10.80;99.90;;;;;;4953248;29;20771;-78
2021/09/20 03:01:35;;;;;;;4.90;2.88;;;10.80;99.90;;;;;;4951316;29;20058;-78
2021/09/20 03:04:02;;;;;;;7.75;3.78;;;10.80;99.90;;;;;;4951934;29;20702;-79
2021/09/20 03:06:30;;;;;;;12.75;3.53;;;10.80;99.90;;;;;;4953768;29;20147;-78
2021/09/20 03:08:56;;;;;;;4.60;3.10;;;10.80;99.90;;;;;;4952952;29;20083;-78
2021/09/20 03:11:23;;;;;;;6.93;3.75;;;10.80;99.90;;;;;;4952360;29;20070;-78
2021/09/20 03:13:50;;;;;;;5.55;2.88;;;10.70;99.90;;;;;;4951477;28;20058;-78
2021/09/20 03:16:16;;;;;;;7.40;3.10;;;10.70;99.90;;;;;;4952511;29;20115;-79
2021/09/20 03:18:43;;;;;;;7.72;3.13;;;10.70;99.90;;;;;;4956319;28;20051;-79
2021/09/20 03:21:10;;;;;;;6.88;3.28;;;10.70;99.90;;;;;;4937520;29;20086;-78
2021/09/20 03:23:37;;;;;;;9.25;3.33;;;10.70;99.90;;;;;;4943966;29;20109;-78
2021/09/20 03:26:04;;;;;;;5.65;3.03;;;10.70;99.90;;;;;;4951746;29;20055;-78
2021/09/20 03:28:31;;;;;;;10.80;3.90;;;10.70;99.90;;;;;;4950703;29;20055;-79
2021/09/20 03:30:58;;;;;;;9.10;3.28;;;10.70;99.90;;;;;;4952301;29;20083;-78
2021/09/20 03:33:26;;;;;;;4.95;2.97;;;10.70;99.90;;;;;;4952863;29;20066;-79
2021/09/20 03:35:56;;;;;;;5.78;3.00;;;10.60;99.90;;;;;;4952284;29;20070;-78
2021/09/20 03:38:24;;;;;;;8.57;3.13;;;10.60;99.90;;;;;;4951642;29;20397;-79
2021/09/20 03:40:51;;;;;;;12.30;3.72;;;10.60;99.90;;;;;;4943130;29;20131;-79
2021/09/20 03:43:20;;;;;;;5.90;3.30;;;10.60;99.90;;;;;;4943749;29;20086;-79
2021/09/20 03:45:51;;;;;;;10.63;3.60;;;10.60;99.90;;;;;;4934203;29;20060;-79
2021/09/20 03:48:19;;;;;;;10.93;3.55;;;10.60;99.90;;;;;;4939333;29;20047;-79
2021/09/20 03:50:47;;;;;;;6.95;3.13;;;10.60;99.90;;;;;;4942391;29;20118;-79
2021/09/20 03:53:16;;;;;;;6.07;2.90;;;10.60;99.90;;;;;;4946649;29;20062;-79
2021/09/20 03:55:43;;;;;;;8.77;3.63;;;10.50;99.90;;;;;;4951416;29;20053;-79
2021/09/20 03:58:11;;;;;;;8.13;3.60;;;10.60;99.90;;;;;;4950352;29;20799;-78
2021/09/20 04:00:38;;;;;;;4.93;3.15;;;10.50;99.90;;;;;;4948577;28;20039;-78
2021/09/20 04:03:06;;;;;;;5.07;2.75;;;10.50;99.90;;;;;;4950137;29;20093;-78
2021/09/20 04:05:33;;;;;;;7.95;2.90;;;10.50;99.90;;;;;;4948711;29;20106;-78
2021/09/20 04:07:59;;;;;;;8.30;2.83;;;10.50;99.90;;;;;;4948956;29;20051;-78
2021/09/20 04:10:26;;;;;;;6.55;3.05;;;10.40;99.90;;;;;;4945470;29;20094;-78
2021/09/20 04:12:53;;;;;;;8.68;3.15;;;10.40;99.90;;;;;;4932578;29;20090;-78
2021/09/20 04:15:20;;;;;;;7.13;3.33;;;10.40;99.90;;;;;;4949411;29;20724;-78
2021/09/20 04:17:48;;;;;;;16.13;3.50;;;10.50;99.90;;;;;;4948434;29;20046;-77
2021/09/20 04:20:15;;;;;;;6.93;3.42;;;10.50;99.90;;;;;;4953638;28;20055;-77
2021/09/20 04:22:42;;;;;;;11.82;5.32;;;10.50;99.90;;;;;;4947567;29;20082;-78
2021/09/20 04:25:10;;;;;;;6.32;3.50;;;10.60;99.90;;;;;;4949263;29;20055;-78
2021/09/20 04:27:37;;;;;;;12.13;3.15;;;10.50;99.90;;;;;;4936589;29;20055;-77
2021/09/20 04:30:06;;;;;;;12.07;3.65;;;10.50;99.90;;;;;;4948152;29;20049;-77
2021/09/20 04:32:33;;;;;;;16.40;3.80;;;10.50;99.90;;;;;;4948842;28;20081;-78
2021/09/20 04:35:00;;;;;;;9.82;3.53;;;10.60;99.90;;;;;;4946411;28;20138;-77
2021/09/20 04:37:27;;;;;;;8.30;3.22;;;10.60;99.90;;;;;;4945735;29;20596;-77
2021/09/20 04:39:53;;;;;;;7.60;3.78;;;10.60;99.90;;;;;;4931435;29;20089;-77
2021/09/20 04:42:20;;;;;;;10.95;3.88;;;10.60;99.90;;;;;;4946586;29;20150;-77
2021/09/20 04:44:47;;;;;;;6.57;3.30;;;10.60;99.90;;;;;;4948276;29;20125;-77
2021/09/20 04:47:14;;;;;;;8.73;3.33;;;10.60;99.90;;;;;;4942887;29;20142;-78
2021/09/20 04:49:41;;;;;;;8.88;3.67;;;10.70;99.90;;;;;;4937066;29;20105;-78
2021/09/20 04:52:10;;;;;;;9.25;3.72;;;10.70;99.90;;;;;;4940331;29;20130;-79
2021/09/20 04:54:37;;;;;;;8.68;3.20;;;10.70;99.90;;;;;;4947702;29;20386;-78
2021/09/20 04:57:04;;;;;;;7.70;3.85;;;10.70;99.90;;;;;;4945359;29;20847;-78
2021/09/20 04:59:30;;;;;;;10.23;4.13;;;10.70;99.90;;;;;;4946473;29;20129;-78
2021/09/20 05:01:57;;;;;;;6.68;3.55;;;10.70;99.90;;;;;;4949084;29;20051;-80
2021/09/20 05:04:24;;;;;;;8.30;4.40;;;10.80;99.90;;;;;;4947436;29;20501;-77
2021/09/20 05:06:51;;;;;;;7.60;3.63;;;10.80;99.90;;;;;;4933907;29;20150;-80
2021/09/20 05:09:18;;;;;;;7.75;3.70;;;10.80;99.90;;;;;;4950676;29;20078;-83
2021/09/20 05:11:44;;;;;;;11.05;4.25;;;10.80;99.90;;;;;;4951806;29;20054;-82
2021/09/20 05:14:11;;;;;;;10.18;4.50;;;10.90;99.90;;;;;;4951449;29;20557;-82
2021/09/20 05:16:38;;;;;;;12.20;4.13;;;10.90;99.90;;;;;;4935635;29;20098;-84
2021/09/20 05:19:05;;;;;;;11.82;4.43;;;10.90;99.90;;;;;;4950298;29;20055;-80
2021/09/20 05:21:32;;;;;;;10.13;4.70;;;11.00;99.90;;;;;;4940721;29;20068;-79
2021/09/20 05:23:58;;;;;;;11.48;5.05;;;11.00;99.90;;;;;;4951319;28;20106;-83
2021/09/20 05:26:25;;;;;;;10.00;4.70;;;10.90;99.90;;;;;;4947065;29;20056;-78
2021/09/20 05:28:52;;;;;;;6.85;3.90;;;10.90;99.90;;;;;;4932675;29;20138;-83
2021/09/20 05:31:19;;;;;;;14.57;4.22;;;10.80;99.90;;;;;;4938753;29;20135;-79
2021/09/20 05:33:46;;;;;;;9.07;3.80;;;10.90;99.90;;;;;;4949011;28;20118;-77
2021/09/20 05:36:13;;;;;;;13.32;4.20;;;10.80;99.90;;;;;;4947246;29;20058;-78
2021/09/20 05:38:40;;;;;;;8.00;4.28;;;10.80;99.90;;;;;;4951185;29;20055;-79
2021/09/20 05:41:07;;;;;;;12.20;5.30;;;10.90;99.90;;;;;;4949885;29;20051;-80
2021/09/20 05:43:36;;;;;;;8.75;4.05;;;11.00;99.90;;;;;;4933927;29;20078;-81
2021/09/20 05:46:03;;;;;;;15.35;4.40;;;11.00;99.90;;;;;;4932743;29;20094;-81
2021/09/20 05:48:30;;;;;;;23.35;4.35;;;11.10;99.90;;;;;;4935016;28;20051;-82
2021/09/20 05:50:57;;;;;;;11.15;4.53;;;11.10;99.90;;;;;;4954128;29;20074;-81
2021/09/20 05:53:24;;;;;;;11.45;5.00;;;11.10;99.90;;;;;;4947406;29;20127;-81
2021/09/20 05:55:51;;;;;;;9.43;4.15;;;11.10;99.90;;;;;;4956947;29;20063;-82
2021/09/20 05:58:18;;;;;;;14.45;5.03;;;11.10;99.90;;;;;;4955558;29;20071;-82
2021/09/20 06:00:46;;;;;;;17.80;4.57;;;11.20;99.90;;;;;;4940505;29;20160;-81
2021/09/20 06:03:15;;;;;;;12.35;5.13;;;11.20;99.90;;;;;;4955204;29;20074;-82
2021/09/20 06:05:43;;;;;;;12.88;4.85;;;11.20;99.90;;;;;;4951651;29;20051;-81
2021/09/20 06:08:15;;;;;;;13.00;5.53;;;11.20;99.90;;;;;;4936564;29;20052;-81
2021/09/20 06:10:43;;;;;;;8.85;4.43;;;11.20;99.90;;;;;;4937550;29;20146;-81
2021/09/20 06:13:10;;;;;;;11.18;5.20;;;11.20;99.90;;;;;;4936317;29;20729;-81
2021/09/20 06:15:38;;;;;;;13.73;5.40;;;11.30;99.90;;;;;;4936211;29;20051;-81
2021/09/20 06:18:06;;;;;;;16.65;5.15;;;11.30;99.90;;;;;;4934705;29;20062;-81
2021/09/20 06:20:34;;;;;;;11.45;5.18;;;11.30;99.90;;;;;;4932443;29;20106;-82
2021/09/20 06:23:03;;;;;;;11.43;4.80;;;11.40;99.90;;;;;;4939264;29;20719;-81
2021/09/20 06:25:31;;;;;;;13.18;5.30;;;11.40;99.90;;;;;;4940140;29;20079;-81
2021/09/20 06:28:07;;;;;;;8.82;4.40;;;11.40;99.90;;;;;;4939680;29;20564;-82
2021/09/20 06:30:35;;;;;;;11.20;5.10;;;11.50;99.90;;;;;;4939685;29;20131;-82
2021/09/20 06:33:03;;;;;;;12.93;5.55;;;11.50;99.90;;;;;;4956666;29;20129;-82
2021/09/20 06:35:30;;;;;;;16.08;5.00;;;11.50;99.90;;;;;;4939908;29;20101;-82
2021/09/20 06:37:58;;;;;;;13.68;5.30;;;11.40;99.90;;;;;;4956325;29;20047;-82
2021/09/20 06:40:25;;;;;;;21.35;5.55;;;11.50;99.90;;;;;;4954602;29;20078;-81
2021/09/20 06:42:53;;;;;;;13.23;5.43;;;11.60;99.90;;;;;;4955589;29;20097;-82
2021/09/20 06:45:22;;;;;;;15.52;5.15;;;11.60;99.90;;;;;;4954939;28;20059;-82
2021/09/20 06:47:50;;;;;;;15.25;4.85;;;11.60;99.90;;;;;;4956438;29;20129;-81
2021/09/20 06:50:17;;;;;;;19.67;4.97;;;11.70;99.90;;;;;;4954686;29;20134;-81
2021/09/20 06:52:45;;;;;;;21.30;5.68;;;11.70;99.90;;;;;;4946570;29;20059;-82
2021/09/20 06:55:15;;;;;;;12.10;5.22;;;11.80;99.90;;;;;;4954268;28;20051;-82
2021/09/20 06:57:43;;;;;;;16.15;5.72;;;11.80;99.90;;;;;;4955352;29;20751;-82
2021/09/20 07:00:12;;;;;;;11.15;5.30;;;11.90;99.90;;;;;;4936917;29;20086;-82
2021/09/20 07:02:39;;;;;;;16.60;5.30;;;12.00;99.90;;;;;;4953394;29;20091;-81
2021/09/20 07:05:11;;;;;;;10.75;5.43;;;12.00;99.90;;;;;;4955183;29;20157;-82
2021/09/20 07:07:39;;;;;;;9.18;4.90;;;12.10;99.90;;;;;;4954820;29;20078;-81
2021/09/20 07:10:06;;;;;;;12.98;5.22;;;12.10;99.90;;;;;;4955741;29;20150;-81
2021/09/20 07:12:34;;;;;;;18.75;5.63;;;12.20;99.90;;;;;;4954743;29;20167;-81
2021/09/20 07:15:01;;;;;;;15.52;5.47;;;12.30;99.90;;;;;;4956650;29;20055;-82
2021/09/20 07:17:28;;;;;;;14.20;5.50;;;12.40;99.90;;;;;;4953807;29;20055;-83
2021/09/20 07:19:55;;;;;;;23.75;13.75;;;12.40;99.90;;;;;;4963521;28;20078;-82
2021/09/20 07:22:22;;;;;;;11.80;5.28;;;12.50;99.90;;;;;;4954056;29;20066;-82
2021/09/20 07:24:49;;;;;;;10.68;5.15;;;12.50;99.90;;;;;;4938531;29;20129;-82
2021/09/20 07:27:16;;;;;;;11.30;5.38;;;12.50;99.90;;;;;;4954576;29;20744;-82
2021/09/20 07:29:43;;;;;;;10.02;4.72;;;12.70;99.90;;;;;;4953424;29;20109;-82
2021/09/20 07:32:10;;;;;;;11.00;4.95;;;12.60;99.90;;;;;;4953775;29;20055;-83
2021/09/20 07:34:37;;;;;;;9.68;4.10;;;12.70;99.90;;;;;;4935279;29;20130;-82
2021/09/20 07:37:04;;;;;;;14.27;6.10;;;12.80;99.90;;;;;;4952751;29;20083;-81
2021/09/20 07:39:33;;;;;;;10.43;4.70;;;12.80;99.90;;;;;;4953044;29;20051;-82
2021/09/20 07:42:03;;;;;;;10.43;5.13;;;12.90;99.90;;;;;;4953696;29;20087;-82
2021/09/20 07:44:30;;;;;;;11.20;4.88;;;13.10;99.90;;;;;;4953527;28;20075;-82
2021/09/20 07:46:57;;;;;;;9.65;4.70;;;13.20;99.90;;;;;;4950646;29;20051;-83
2021/09/20 07:49:25;;;;;;;14.35;5.15;;;13.50;99.90;;;;;;4954991;28;20082;-83
2021/09/20 07:51:55;;;;;;;9.63;4.28;;;14.10;99.90;;;;;;4946900;29;20039;-83
2021/09/20 07:54:23;;;;;;;6.15;3.58;;;14.30;99.90;;;;;;4953070;29;20055;-84
2021/09/20 07:56:50;;;;;;;14.55;3.92;;;15.10;99.90;;;;;;4954263;29;20055;-83
2021/09/20 07:59:18;;;;;;;13.30;3.70;;;15.10;99.90;;;;;;4954266;29;20140;-85
2021/09/20 08:01:47;;;;;;;8.68;3.97;;;15.60;99.90;;;;;;4945859;29;20082;-83
2021/09/20 08:04:16;;;;;;;6.65;3.47;;;15.70;99.90;;;;;;4937820;29;20055;-82
2021/09/20 08:06:54;;;;;;;8.38;3.42;;;15.40;99.90;;;;;;4954172;28;20134;-83
2021/09/20 08:09:21;;;;;;;6.22;3.38;;;15.20;99.90;;;;;;4953919;29;20095;-83
2021/09/20 08:11:48;;;;;;;8.80;3.45;;;15.20;99.90;;;;;;4953403;29;20058;-83
2021/09/20 08:14:15;;;;;;;6.95;3.30;;;15.10;99.90;;;;;;4950783;28;20051;-83
2021/09/20 08:16:43;;;;;;;6.20;3.28;;;15.20;99.90;;;;;;4954212;29;20043;-83
2021/09/20 08:19:10;;;;;;;7.93;3.47;;;15.40;99.90;;;;;;4962738;28;20050;-83
2021/09/20 08:21:37;;;;;;;6.95;3.65;;;15.40;99.90;;;;;;4937734;29;20381;-83
2021/09/20 08:24:04;;;;;;;12.02;3.85;;;15.60;99.90;;;;;;4938396;29;20118;-83
2021/09/20 08:26:30;;;;;;;5.78;3.35;;;15.40;99.90;;;;;;4938087;29;20130;-83
2021/09/20 08:28:57;;;;;;;8.10;3.35;;;15.30;99.90;;;;;;4954531;29;20747;-83
2021/09/20 08:31:25;;;;;;;7.38;3.60;;;15.10;99.90;;;;;;4954124;28;20051;-83
2021/09/20 08:33:56;;;;;;;7.55;2.85;;;15.10;99.90;;;;;;4954952;29;20147;-83
2021/09/20 08:36:23;;;;;;;5.60;3.08;;;15.30;99.90;;;;;;4954057;29;20071;-83
2021/09/20 08:38:50;;;;;;;6.80;3.40;;;15.60;99.90;;;;;;4953585;29;20141;-83
2021/09/20 08:41:18;;;;;;;5.82;3.05;;;15.90;99.90;;;;;;4936914;29;20113;-83
2021/09/20 08:43:45;;;;;;;6.75;2.95;;;15.80;99.90;;;;;;4955006;28;20083;-83
2021/09/20 08:46:12;;;;;;;9.60;3.58;;;15.80;99.90;;;;;;4940032;29;20504;-83
2021/09/20 08:48:46;;;;;;;6.70;3.58;;;16.00;99.90;;;;;;4939023;29;20122;-83
2021/09/20 08:51:17;;;;;;;7.38;3.28;;;15.80;99.90;;;;;;4934493;29;20134;-83
2021/09/20 08:53:46;;;;;;;6.13;3.05;;;15.80;99.90;;;;;;4944959;29;20051;-84
2021/09/20 08:56:13;;;;;;;8.00;3.42;;;15.90;99.90;;;;;;4952436;29;20057;-83
2021/09/20 08:58:40;;;;;;;6.50;3.85;;;15.90;99.90;;;;;;4952562;29;20153;-83
2021/09/20 09:01:07;;;;;;;11.27;3.72;;;16.10;99.90;;;;;;4952097;29;20059;-83
2021/09/20 09:03:34;;;;;;;8.82;3.50;;;16.10;99.90;;;;;;4948843;29;20145;-83
2021/09/20 09:06:01;;;;;;;11.50;3.53;;;16.20;99.90;;;;;;4948353;29;20065;-83
2021/09/20 09:08:33;;;;;;;8.23;3.60;;;15.90;99.90;;;;;;4951301;29;20087;-83
2021/09/20 09:11:06;;;;;;;8.07;3.45;;;16.00;99.90;;;;;;4950063;29;20134;-82
2021/09/20 09:13:45;;;;;;;10.55;3.33;;;16.00;99.90;;;;;;4951659;29;20075;-83
2021/09/20 09:16:18;;;;;;;7.15;3.22;;;16.20;99.90;;;;;;4951204;29;20134;-83
2021/09/20 09:19:03;;;;;;;8.85;3.17;;;16.60;99.90;;;;;;4946446;28;20499;-84
2021/09/20 09:21:37;;;;;;;17.55;6.00;;;16.60;99.90;;;;;;4956414;29;20094;-82
2021/09/20 09:24:13;;;;;;;7.82;3.70;;;16.50;99.90;;;;;;4949606;29;20051;-83
2021/09/20 09:26:58;;;;;;;8.93;3.35;;;16.50;99.90;;;;;;4956954;28;20058;-83
2021/09/20 09:29:32;;;;;;;18.42;3.83;;;16.30;99.90;;;;;;4955303;28;20051;-83
2021/09/20 09:32:02;;;;;;;5.07;3.28;;;16.10;99.90;;;;;;4953220;28;20067;-83
2021/09/20 09:34:32;;;;;;;7.32;3.65;;;16.10;99.90;;;;;;4941240;29;20047;-83
2021/09/20 09:37:11;;;;;;;8.13;4.00;;;16.40;99.90;;;;;;4941137;29;20130;-83
2021/09/20 09:39:40;;;;;;;6.63;3.78;;;16.20;99.90;;;;;;4955872;29;20431;-84
2021/09/20 09:42:27;;;;;;;6.63;4.00;;;16.30;99.90;;;;;;4956371;29;20081;-83
2021/09/20 09:44:55;;;;;;;7.03;3.60;;;16.10;99.90;;;;;;4957113;29;20079;-83
2021/09/20 09:47:31;;;;;;;7.57;3.72;;;15.90;99.90;;;;;;4967047;28;20077;-83
2021/09/20 09:50:14;;;;;;;8.75;4.20;;;15.80;99.90;;;;;;4939800;29;20097;-83
2021/09/20 09:52:42;;;;;;;6.90;3.85;;;16.10;99.90;;;;;;4940000;29;20070;-82
2021/09/20 09:55:11;;;;;;;5.72;3.70;;;15.80;99.90;;;;;;4956698;29;20137;-83
2021/09/20 09:57:39;;;;;;;6.25;3.75;;;15.90;99.90;;;;;;4940604;29;20070;-83
2021/09/20 10:00:14;;;;;;;7.70;3.90;;;16.00;99.90;;;;;;4957488;28;20079;-83
2021/09/20 10:02:44;;;;;;;7.55;4.35;;;15.90;99.90;;;;;;4936842;29;20056;-82
2021/09/20 10:05:15;;;;;;;8.88;3.25;;;15.90;99.90;;;;;;4939273;29;20060;-83
2021/09/20 10:07:45;;;;;;;7.68;4.07;;;15.60;99.90;;;;;;4955521;29;20059;-83
2021/09/20 10:10:25;;;;;;;12.52;4.18;;;15.90;99.90;;;;;;4955706;29;20729;-82
2021/09/20 10:12:56;;;;;;;8.52;4.07;;;16.20;99.90;;;;;;4955520;29;20147;-83
2021/09/20 10:15:24;;;;;;;8.30;3.72;;;16.10;99.90;;;;;;4955189;29;20684;-82
2021/09/20 10:17:51;;;;;;;7.57;3.47;;;16.20;99.90;;;;;;4957507;29;20067;-83
2021/09/20 10:20:23;;;;;;;5.72;3.30;;;16.10;99.90;;;;;;4963198;28;20061;-82
2021/09/20 10:22:52;;;;;;;12.63;4.80;;;16.10;99.90;;;;;;4942590;29;20056;-83
2021/09/20 10:25:21;;;;;;;9.35;4.00;;;16.00;99.90;;;;;;4937409;29;20075;-82
2021/09/20 10:27:48;;;;;;;8.27;3.58;;;16.00;99.90;;;;;;4936813;29;20552;-83
2021/09/20 10:30:20;;;;;;;8.43;3.58;;;16.30;99.90;;;;;;4942612;28;20082;-82
2021/09/20 10:32:54;;;;;;;7.97;3.80;;;16.10;99.90;;;;;;4948368;29;20070;-83
2021/09/20 10:35:22;;;;;;;9.00;3.40;;;16.10;99.90;;;;;;4939321;28;20097;-83
2021/09/20 10:37:52;;;;;;;8.45;3.80;;;16.10;99.90;;;;;;4938697;29;20059;-83
2021/09/20 10:40:20;;;;;;;8.60;3.53;;;16.30;99.90;;;;;;4938693;29;20065;-83
2021/09/20 10:43:00;;;;;;;6.40;3.03;;;16.70;99.90;;;;;;4942035;29;20044;-85
2021/09/20 10:45:49;;;;;;;8.40;3.83;;;19.20;99.90;;;;;;4942702;29;20059;-84
2021/09/20 10:48:22;;;;;;;4.03;2.97;;;18.40;99.90;;;;;;4954855;28;20059;-81
2021/09/20 10:51:13;;;;;;;5.38;3.35;;;18.10;99.90;;;;;;4960900;28;20045;-83
2021/09/20 10:53:41;;;;;;;5.47;3.28;;;16.90;99.90;;;;;;4908482;29;20052;-87
2021/09/20 10:56:09;;;;;;;7.57;3.47;;;16.20;99.90;;;;;;4934548;29;20126;-87
2021/09/20 10:58:42;;;;;;;6.95;3.45;;;16.10;99.90;;;;;;4942648;28;20098;-87
2021/09/20 11:01:12;;;;;;;8.95;4.15;;;16.10;99.90;;;;;;4940209;29;20059;-87
2021/09/20 11:03:46;;;;;;;7.97;3.53;;;16.10;99.90;;;;;;4950013;29;20059;-87
2021/09/20 11:06:23;;;;;;;7.80;3.50;;;16.10;99.90;;;;;;4948703;29;20055;-86
2021/09/20 11:08:59;;;;;;;9.52;4.25;;;15.80;99.90;;;;;;4954305;29;20781;-87
2021/09/20 11:11:39;;;;;;;5.72;3.90;;;15.80;99.90;;;;;;4937963;29;20071;-87
2021/09/20 11:14:19;;;;;;;9.63;3.83;;;15.90;99.90;;;;;;4938059;29;20062;-87
2021/09/20 11:16:55;;;;;;;7.80;4.25;;;15.90;99.90;;;;;;4937893;29;20099;-86
2021/09/20 11:19:32;;;;;;;9.63;3.58;;;16.20;99.90;;;;;;4962082;28;20051;-87
2021/09/20 11:22:05;;;;;;;7.25;3.45;;;16.50;99.90;;;;;;4953940;29;20582;-86
2021/09/20 11:24:42;;;;;;;7.82;3.10;;;16.70;99.90;;;;;;4953023;29;20086;-86
2021/09/20 11:27:15;;;;;;;11.02;3.47;;;16.30;99.90;;;;;;4952659;29;20057;-86
2021/09/20 11:29:47;;;;;;;6.03;3.05;;;15.90;99.90;;;;;;4952550;29;20134;-87
2021/09/20 11:32:14;;;;;;;8.43;3.70;;;15.80;99.90;;;;;;4948891;29;20561;-87
2021/09/20 11:34:43;;;;;;;5.45;3.38;;;15.70;99.90;;;;;;4952273;29;20058;-87
2021/09/20 11:37:21;;;;;;;7.38;3.53;;;16.00;99.90;;;;;;4952874;29;20143;-87
2021/09/20 11:39:55;;;;;;;8.35;3.55;;;16.20;99.90;;;;;;4952376;29;20086;-87
2021/09/20 11:42:25;;;;;;;8.48;3.33;;;16.00;99.90;;;;;;4953115;28;20079;-87
2021/09/20 11:44:58;;;;;;;7.88;3.83;;;16.10;99.90;;;;;;4953992;29;20149;-86
2021/09/20 11:47:27;;;;;;;6.57;3.58;;;16.00;99.90;;;;;;4954078;29;20086;-86
2021/09/20 11:50:08;;;;;;;6.35;3.15;;;15.90;99.90;;;;;;4952062;28;20257;-87
2021/09/20 11:52:39;;;;;;;10.27;3.28;;;16.00;99.90;;;;;;4952294;29;20106;-87
2021/09/20 11:55:19;;;;;;;5.65;3.53;;;16.10;99.90;;;;;;4936706;29;20138;-87
2021/09/20 11:57:48;;;;;;;12.95;4.28;;;16.00;99.90;;;;;;4936329;29;20730;-87
2021/09/20 12:00:17;;;;;;;9.60;3.58;;;15.80;99.90;;;;;;4944934;29;20077;-87
2021/09/20 12:02:49;;;;;;;7.60;3.13;;;15.90;99.90;;;;;;4952042;29;20083;-87
2021/09/20 12:05:20;;;;;;;7.47;2.65;;;15.80;99.90;;;;;;4952219;29;20079;-87
2021/09/20 12:07:50;;;;;;;4.82;3.28;;;15.80;99.90;;;;;;4951786;29;20047;-86
2021/09/20 12:10:21;;;;;;;5.57;2.53;;;15.80;99.90;;;;;;4949743;29;20059;-87
2021/09/20 12:12:50;;;;;;;4.30;3.55;;;15.80;99.90;;;;;;4952292;29;20086;-87
2021/09/20 12:15:21;;;;;;;8.40;3.33;;;15.80;99.90;;;;;;4951675;29;20079;-87
2021/09/20 12:18:06;;;;;;;5.22;2.85;;;15.90;99.90;;;;;;4951718;29;20117;-87
2021/09/20 12:20:36;;;;;;;7.03;2.72;;;16.00;99.90;;;;;;4943376;29;20079;-87
2021/09/20 12:23:22;;;;;;;7.47;3.30;;;16.10;99.90;;;;;;4951822;29;20150;-86
2021/09/20 12:26:01;;;;;;;7.65;3.33;;;16.20;99.90;;;;;;4951530;29;20432;-86
2021/09/20 12:28:33;;;;;;;8.00;3.10;;;16.20;99.90;;;;;;4951548;29;20079;-87
2021/09/20 12:31:07;;;;;;;7.90;3.63;;;16.20;99.90;;;;;;4946565;29;20484;-87
2021/09/20 12:33:58;;;;;;;6.03;3.60;;;16.20;99.90;;;;;;4924065;29;20051;-86
2021/09/20 12:36:27;;;;;;;5.72;3.05;;;16.20;99.90;;;;;;4951481;29;20110;-87
2021/09/20 12:39:09;;;;;;;6.35;3.40;;;16.20;99.90;;;;;;4952548;29;20086;-86
2021/09/20 12:41:46;;;;;;;7.30;3.15;;;16.20;99.90;;;;;;4951374;29;20408;-86
2021/09/20 12:44:26;;;;;;;6.18;2.85;;;16.40;99.90;;;;;;4952276;29;20143;-86
2021/09/20 12:47:01;;;;;;;3.92;2.90;;;16.60;99.90;;;;;;4951592;29;20090;-86
2021/09/20 12:49:28;;;;;;;10.00;3.38;;;16.30;99.90;;;;;;4943908;29;20059;-86
2021/09/20 12:51:55;;;;;;;4.80;2.72;;;16.40;99.90;;;;;;4941631;28;20130;-87
2021/09/20 12:54:24;;;;;;;6.80;3.00;;;16.70;99.90;;;;;;4955074;29;20201;-86